Wetterdaten: Woche 19.04.10 - 25.04.10 (KW16)
Datum Zeit Temp. A. Feuchte A. Luftdruck Regen Wind Richtung Taupunkt Windchill Windben
19.04.2010 00:00 6,7 C 82 % 1012,2 hPa 0,0 l/m 0,0 km/h N 3,8 C 6,7 C 2,0 km/h
19.04.2010 01:00 7,4 C 81 % 1011,9 hPa 0,0 l/m 0,9 km/h S-SW 4,3 C 7,4 C 5,6 km/h
19.04.2010 02:00 6,6 C 82 % 1011,4 hPa 0,0 l/m 0,1 km/h N 3,8 C 6,6 C 2,0 km/h
19.04.2010 03:00 5,8 C 83 % 1011,3 hPa 0,0 l/m 0,1 km/h N 3,2 C 5,8 C 2,0 km/h
19.04.2010 04:00 5,0 C 86 % 1011,3 hPa 0,0 l/m 0,3 km/h N 2,9 C 5,0 C 2,0 km/h
19.04.2010 05:00 4,3 C 88 % 1011,2 hPa 0,0 l/m 0,2 km/h N 2,5 C 4,3 C 2,4 km/h
19.04.2010 06:00 4,3 C 89 % 1011,3 hPa 0,0 l/m 0,2 km/h N 2,7 C 4,3 C 3,2 km/h
19.04.2010 07:00 6,5 C 87 % 1011,4 hPa 0,0 l/m 0,1 km/h N 4,5 C 6,5 C 2,8 km/h
19.04.2010 08:00 12,2 C 71 % 1011,1 hPa 0,0 l/m 2,0 km/h NW 6,9 C 12,2 C 7,6 km/h
19.04.2010 09:00 14,6 C 59 % 1011,0 hPa 0,0 l/m 5,7 km/h W-NW 6,7 C 14,5 C 16,1 km/h
19.04.2010 10:00 15,5 C 55 % 1011,3 hPa 0,0 l/m 8,1 km/h NW 6,4 C 14,7 C 20,5 km/h
19.04.2010 11:00 16,7 C 50 % 1011,5 hPa 0,0 l/m 6,7 km/h W-NW 6,3 C 16,5 C 18,1 km/h
19.04.2010 12:00 17,6 C 49 % 1011,2 hPa 0,0 l/m 6,3 km/h SW 6,8 C 17,6 C 17,3 km/h
19.04.2010 13:00 17,8 C 48 % 1011,0 hPa 0,0 l/m 6,7 km/h NW 6,5 C 17,6 C 17,7 km/h
19.04.2010 14:00 18,4 C 47 % 1010,6 hPa 0,0 l/m 6,8 km/h NW 6,7 C 18,2 C 18,5 km/h
19.04.2010 15:00 18,5 C 41 % 1010,4 hPa 0,0 l/m 6,7 km/h NO 5,1 C 18,2 C 16,5 km/h
19.04.2010 16:00 19,3 C 41 % 1010,3 hPa 0,0 l/m 8,4 km/h N 5,7 C 18,5 C 18,5 km/h
19.04.2010 17:00 19,3 C 37 % 1010,3 hPa 0,0 l/m 8,2 km/h N-NO 4,4 C 18,6 C 20,1 km/h
19.04.2010 18:00 18,5 C 35 % 1010,5 hPa 0,0 l/m 7,3 km/h N-NW 2,8 C 18,2 C 18,1 km/h
19.04.2010 19:00 17,4 C 37 % 1010,5 hPa 0,0 l/m 4,0 km/h N-NW 2,4 C 17,4 C 10,4 km/h
19.04.2010 20:00 13,7 C 49 % 1011,2 hPa 0,0 l/m 0,0 km/h N 3,0 C 13,7 C 0,8 km/h
19.04.2010 21:00 11,1 C 58 % 1011,8 hPa 0,0 l/m 0,1 km/h N-NO 3,2 C 11,1 C 0,8 km/h
19.04.2010 22:00 11,1 C 59 % 1012,1 hPa 0,0 l/m 0,4 km/h N 3,3 C 11,1 C 2,4 km/h
19.04.2010 23:00 10,6 C 61 % 1012,3 hPa 0,0 l/m 0,9 km/h SW 3,3 C 10,6 C 4,8 km/h
20.04.2010 00:00 10,8 C 61 % 1012,4 hPa 0,0 l/m 0,8 km/h W-SW 3,5 C 10,8 C 5,2 km/h
20.04.2010 01:00 8,5 C 70 % 1012,5 hPa 0,0 l/m 0,1 km/h N 3,4 C 8,5 C 1,6 km/h
20.04.2010 02:00 6,8 C 77 % 1012,5 hPa 0,0 l/m 0,1 km/h N 3,0 C 6,8 C 1,6 km/h
20.04.2010 03:00 5,8 C 81 % 1012,6 hPa 0,0 l/m 0,1 km/h N 2,8 C 5,8 C 1,6 km/h
20.04.2010 04:00 4,9 C 84 % 1012,7 hPa 0,0 l/m 0,0 km/h N 2,4 C 4,9 C 0,8 km/h
20.04.2010 05:00 4,7 C 85 % 1012,8 hPa 0,0 l/m 0,0 km/h N 2,3 C 4,7 C 0,8 km/h
20.04.2010 06:00 5,0 C 85 % 1013,0 hPa 0,0 l/m 0,0 km/h N 2,7 C 5,0 C 0,4 km/h
20.04.2010 07:00 8,1 C 78 % 1013,4 hPa 0,0 l/m 0,0 km/h N 4,5 C 8,1 C 0,4 km/h
20.04.2010 08:00 12,1 C 66 % 1013,5 hPa 0,0 l/m 0,6 km/h NO 5,8 C 12,1 C 2,8 km/h
20.04.2010 09:00 14,5 C 56 % 1013,3 hPa 0,0 l/m 3,4 km/h NO 5,8 C 14,5 C 8,8 km/h
20.04.2010 10:00 16,1 C 52 % 1013,4 hPa 0,0 l/m 4,3 km/h N-NW 6,1 C 16,1 C 10,9 km/h
20.04.2010 11:00 18,2 C 47 % 1012,7 hPa 0,0 l/m 3,9 km/h N-NW 6,5 C 18,2 C 10,1 km/h
20.04.2010 12:00 19,9 C 40 % 1012,3 hPa 0,0 l/m 4,2 km/h N-NW 5,9 C 19,9 C 10,5 km/h
20.04.2010 13:00 19,5 C 41 % 1011,9 hPa 0,0 l/m 1,9 km/h NW 5,9 C 19,5 C 7,2 km/h
20.04.2010 14:00 19,5 C 39 % 1011,5 hPa 0,0 l/m 1,8 km/h N-NO 5,0 C 19,5 C 8,0 km/h
20.04.2010 15:00 19,8 C 39 % 1011,2 hPa 0,0 l/m 6,0 km/h N-NO 5,4 C 19,5 C 17,3 km/h
20.04.2010 16:00 21,0 C 34 % 1010,5 hPa 0,0 l/m 8,6 km/h S-SO 4,5 C 20,1 C 23,0 km/h
20.04.2010 17:00 20,5 C 33 % 1010,2 hPa 0,0 l/m 7,5 km/h W 3,6 C 20,1 C 20,5 km/h
20.04.2010 18:00 19,1 C 37 % 1010,5 hPa 0,0 l/m 9,6 km/h W 4,0 C 17,8 C 24,5 km/h
20.04.2010 19:00 16,9 C 43 % 1011,2 hPa 0,0 l/m 6,0 km/h W-SW 4,3 C 16,2 C 18,5 km/h
20.04.2010 20:00 15,8 C 46 % 1011,2 hPa 0,0 l/m 5,2 km/h W-NW 4,3 C 15,8 C 19,7 km/h
20.04.2010 21:00 15,5 C 48 % 1011,6 hPa 0,0 l/m 8,0 km/h W-SW 4,6 C 14,6 C 24,5 km/h
20.04.2010 22:00 15,0 C 51 % 1011,7 hPa 0,0 l/m 9,1 km/h W-SW 5,0 C 13,6 C 26,1 km/h
20.04.2010 23:00 14,6 C 53 % 1012,0 hPa 0,0 l/m 12,5 km/h W 5,0 C 11,6 C 30,6 km/h
21.04.2010 00:00 14,1 C 55 % 1012,4 hPa 0,0 l/m 9,5 km/h W-NW 5,2 C 12,4 C 24,1 km/h
21.04.2010 01:00 13,6 C 57 % 1012,4 hPa 0,0 l/m 6,6 km/h W-NW 5,2 C 13,3 C 26,5 km/h
21.04.2010 02:00 13,4 C 58 % 1012,0 hPa 0,0 l/m 5,3 km/h W-SW 5,2 C 13,3 C 18,5 km/h
21.04.2010 03:00 13,1 C 57 % 1011,6 hPa 0,0 l/m 4,0 km/h W-SW 4,8 C 13,1 C 18,1 km/h
21.04.2010 04:00 13,2 C 56 % 1011,5 hPa 0,0 l/m 5,5 km/h W 4,6 C 13,0 C 20,5 km/h
21.04.2010 05:00 13,2 C 57 % 1011,6 hPa 0,0 l/m 5,5 km/h W-NW 4,7 C 12,8 C 19,7 km/h
21.04.2010 06:00 12,8 C 59 % 1011,8 hPa 0,0 l/m 4,5 km/h W-SW 4,8 C 12,8 C 18,1 km/h
21.04.2010 07:00 13,0 C 59 % 1012,1 hPa 0,0 l/m 5,2 km/h SW 5,2 C 13,0 C 20,1 km/h
21.04.2010 08:00 13,8 C 58 % 1012,3 hPa 0,0 l/m 5,1 km/h W-SW 5,6 C 13,6 C 16,5 km/h
21.04.2010 09:00 14,4 C 54 % 1012,4 hPa 0,0 l/m 6,6 km/h W-SW 5,1 C 14,2 C 21,7 km/h
21.04.2010 10:00 15,0 C 50 % 1012,6 hPa 0,0 l/m 8,0 km/h W-SW 4,7 C 14,1 C 22,9 km/h
21.04.2010 11:00 15,9 C 47 % 1012,6 hPa 0,0 l/m 9,6 km/h W-SW 4,5 C 14,3 C 24,1 km/h
21.04.2010 12:00 16,1 C 45 % 1012,3 hPa 0,0 l/m 9,9 km/h W 4,2 C 14,4 C 25,3 km/h
21.04.2010 13:00 16,3 C 43 % 1012,0 hPa 0,0 l/m 13,7 km/h W-NW 3,7 C 13,2 C 35,4 km/h
21.04.2010 14:00 16,5 C 44 % 1011,7 hPa 0,0 l/m 10,8 km/h W-SW 4,2 C 14,5 C 27,8 km/h
21.04.2010 15:00 16,5 C 41 % 1011,1 hPa 0,0 l/m 12,4 km/h W-NW 3,2 C 13,9 C 31,0 km/h
21.04.2010 16:00 16,0 C 41 % 1010,8 hPa 0,0 l/m 10,6 km/h SW 2,9 C 14,0 C 27,8 km/h
21.04.2010 17:00 15,6 C 41 % 1010,9 hPa 0,0 l/m 7,1 km/h W-SW 2,5 C 15,0 C 20,9 km/h
21.04.2010 18:00 15,0 C 41 % 1010,8 hPa 0,0 l/m 6,7 km/h W 1,8 C 14,7 C 20,1 km/h
21.04.2010 19:00 14,1 C 44 % 1011,2 hPa 0,0 l/m 5,3 km/h N-NW 1,9 C 14,1 C 17,7 km/h
21.04.2010 20:00 12,6 C 42 % 1012,3 hPa 0,0 l/m 4,0 km/h NO -0,1 C 12,6 C 9,3 km/h
21.04.2010 21:00 11,0 C 46 % 1013,4 hPa 0,0 l/m 3,1 km/h N -0,2 C 11,0 C 9,2 km/h
21.04.2010 22:00 10,5 C 48 % 1014,0 hPa 0,0 l/m 1,1 km/h W-NW -0,1 C 10,5 C 6,4 km/h
21.04.2010 23:00 10,4 C 47 % 1014,7 hPa 0,0 l/m 5,6 km/h NW -0,5 C 10,0 C 17,7 km/h
22.04.2010 00:00 8,2 C 62 % 1016,0 hPa 0,0 l/m 6,5 km/h N-NW 1,3 C 7,8 C 16,1 km/h
22.04.2010 01:00 7,3 C 70 % 1016,3 hPa 0,0 l/m 2,2 km/h N 2,1 C 7,3 C 8,1 km/h
22.04.2010 02:00 6,9 C 72 % 1016,3 hPa 0,0 l/m 0,3 km/h N 2,2 C 6,9 C 2,8 km/h
22.04.2010 03:00 7,0 C 70 % 1016,5 hPa 0,0 l/m 1,2 km/h NW 1,8 C 7,0 C 4,8 km/h
22.04.2010 04:00 6,9 C 60 % 1016,8 hPa 0,0 l/m 2,0 km/h N -0,2 C 6,9 C 7,6 km/h
22.04.2010 05:00 6,5 C 59 % 1016,9 hPa 0,0 l/m 4,8 km/h N-NW -0,9 C 6,5 C 15,7 km/h
22.04.2010 06:00 5,7 C 62 % 1017,5 hPa 0,0 l/m 3,4 km/h N-NW -1,1 C 5,7 C 8,8 km/h
22.04.2010 07:00 6,1 C 60 % 1018,1 hPa 0,0 l/m 3,0 km/h NW -1,1 C 6,1 C 8,9 km/h
22.04.2010 08:00 6,8 C 56 % 1018,5 hPa 0,0 l/m 3,9 km/h N-NW -1,3 C 6,8 C 10,5 km/h
22.04.2010 09:00 8,0 C 54 % 1018,4 hPa 0,0 l/m 3,6 km/h NW -0,8 C 8,0 C 9,6 km/h
22.04.2010 10:00 9,3 C 48 % 1018,0 hPa 0,3 l/m 4,6 km/h NW -1,2 C 9,3 C 14,1 km/h
22.04.2010 11:00 10,8 C 44 % 1017,7 hPa 0,0 l/m 6,3 km/h NW -1,0 C 10,4 C 16,1 km/h
22.04.2010 12:00 12,1 C 42 % 1017,2 hPa 0,0 l/m 4,9 km/h N-NO -0,6 C 12,1 C 12,1 km/h
22.04.2010 13:00 13,2 C 39 % 1016,4 hPa 0,0 l/m 5,7 km/h NO -0,3 C 13,2 C 14,9 km/h
22.04.2010 14:00 14,3 C 36 % 1015,8 hPa 0,0 l/m 5,4 km/h S -0,5 C 14,0 C 19,7 km/h
22.04.2010 15:00 14,2 C 40 % 1015,6 hPa 0,0 l/m 4,4 km/h O 0,6 C 14,2 C 13,3 km/h
22.04.2010 16:00 13,6 C 40 % 1015,5 hPa 0,0 l/m 4,4 km/h O 0,1 C 13,6 C 11,7 km/h
22.04.2010 17:00 13,4 C 43 % 1015,2 hPa 0,0 l/m 2,5 km/h O 0,9 C 13,4 C 8,8 km/h
22.04.2010 18:00 12,3 C 46 % 1015,0 hPa 0,0 l/m 1,1 km/h O 1,0 C 12,3 C 5,6 km/h
22.04.2010 19:00 11,4 C 57 % 1014,9 hPa 0,0 l/m 0,9 km/h O-SO 3,2 C 11,4 C 6,0 km/h
22.04.2010 20:00 9,9 C 64 % 1015,2 hPa 0,0 l/m 0,1 km/h N 3,5 C 9,9 C 2,4 km/h
22.04.2010 21:00 8,8 C 69 % 1015,4 hPa 0,0 l/m 0,4 km/h N 3,3 C 8,8 C 3,2 km/h
22.04.2010 22:00 6,2 C 77 % 1015,6 hPa 0,0 l/m 0,1 km/h N 2,3 C 6,2 C 1,2 km/h
22.04.2010 23:00 4,2 C 84 % 1015,4 hPa 0,0 l/m 0,0 km/h N 1,7 C 4,2 C 0,0 km/h
23.04.2010 00:00 3,5 C 87 % 1015,3 hPa 0,0 l/m 0,0 km/h N 1,5 C 3,5 C 0,0 km/h
23.04.2010 01:00 2,8 C 88 % 1015,3 hPa 0,0 l/m 0,0 km/h N 1,0 C 2,8 C 0,0 km/h
23.04.2010 02:00 2,3 C 90 % 1014,9 hPa 0,0 l/m 0,0 km/h N 0,8 C 2,3 C 0,0 km/h
23.04.2010 03:00 1,8 C 90 % 1014,7 hPa 0,0 l/m 0,0 km/h N 0,3 C 1,8 C 0,0 km/h
23.04.2010 04:00 1,7 C 91 % 1014,6 hPa 0,0 l/m 0,0 km/h N 0,3 C 1,7 C 0,0 km/h
23.04.2010 05:00 1,3 C 91 % 1015,0 hPa 0,0 l/m 0,0 km/h N 0,0 C 1,3 C 0,0 km/h
23.04.2010 06:00 1,7 C 91 % 1015,3 hPa 0,0 l/m 0,0 km/h N 0,4 C 1,7 C 0,4 km/h
23.04.2010 07:00 3,3 C 91 % 1015,7 hPa 0,0 l/m 0,0 km/h N 2,0 C 3,3 C 0,0 km/h
23.04.2010 08:00 6,3 C 87 % 1016,0 hPa 0,0 l/m 0,0 km/h N 4,2 C 6,3 C 0,8 km/h
23.04.2010 09:00 8,1 C 82 % 1016,4 hPa 0,0 l/m 1,0 km/h NO 5,2 C 8,1 C 4,0 km/h
23.04.2010 10:00 8,1 C 82 % 1016,8 hPa 0,0 l/m 4,7 km/h O-NO 5,3 C 8,1 C 9,7 km/h
23.04.2010 11:00 8,1 C 85 % 1017,2 hPa 0,0 l/m 4,1 km/h O-SO 5,7 C 8,1 C 9,6 km/h
23.04.2010 12:00 8,3 C 83 % 1017,0 hPa 0,0 l/m 3,2 km/h O-SO 5,6 C 8,3 C 8,6 km/h
23.04.2010 13:00 8,8 C 83 % 1017,0 hPa 0,0 l/m 3,2 km/h O 6,0 C 8,8 C 8,4 km/h
23.04.2010 14:00 9,3 C 79 % 1017,0 hPa 0,0 l/m 3,2 km/h O 5,8 C 9,3 C 8,8 km/h
23.04.2010 15:00 9,9 C 77 % 1016,8 hPa 0,0 l/m 3,3 km/h O-SO 6,1 C 9,9 C 8,0 km/h
23.04.2010 16:00 10,2 C 76 % 1016,6 hPa 0,0 l/m 4,9 km/h O 6,2 C 10,2 C 10,5 km/h
23.04.2010 17:00 10,6 C 75 % 1016,5 hPa 0,0 l/m 2,9 km/h O 6,2 C 10,6 C 9,6 km/h
23.04.2010 18:00 10,8 C 75 % 1016,4 hPa 0,0 l/m 1,4 km/h O-SO 6,5 C 10,8 C 5,6 km/h
23.04.2010 19:00 10,7 C 74 % 1016,3 hPa 0,0 l/m 0,6 km/h N 6,2 C 10,7 C 4,8 km/h
23.04.2010 20:00 10,3 C 75 % 1016,8 hPa 0,0 l/m 0,0 km/h N 6,0 C 10,3 C 0,8 km/h
23.04.2010 21:00 9,9 C 76 % 1017,4 hPa 0,0 l/m 0,0 km/h N 5,8 C 9,9 C 0,0 km/h
23.04.2010 22:00 9,6 C 78 % 1017,4 hPa 0,0 l/m 0,0 km/h N 5,9 C 9,6 C 0,0 km/h
23.04.2010 23:00 9,3 C 78 % 1017,4 hPa 0,0 l/m 0,0 km/h N 5,7 C 9,3 C 0,0 km/h
24.04.2010 00:00 9,1 C 76 % 1017,4 hPa 0,0 l/m 0,0 km/h N 5,2 C 9,1 C 0,0 km/h
24.04.2010 01:00 8,9 C 78 % 1017,2 hPa 0,0 l/m 0,0 km/h N 5,2 C 8,9 C 0,0 km/h
24.04.2010 02:00 8,4 C 80 % 1017,2 hPa 0,0 l/m 0,0 km/h N 5,1 C 8,4 C 0,0 km/h
24.04.2010 03:00 6,8 C 84 % 1017,4 hPa 0,0 l/m 0,0 km/h N 4,3 C 6,8 C 0,0 km/h
24.04.2010 04:00 6,3 C 84 % 1017,7 hPa 0,0 l/m 0,0 km/h N 3,8 C 6,3 C 0,0 km/h
24.04.2010 05:00 6,2 C 84 % 1018,0 hPa 0,0 l/m 0,0 km/h N 3,6 C 6,2 C 0,0 km/h
24.04.2010 06:00 6,8 C 84 % 1018,6 hPa 0,0 l/m 0,0 km/h N 4,2 C 6,8 C 0,0 km/h
24.04.2010 07:00 8,3 C 79 % 1019,1 hPa 0,0 l/m 0,0 km/h N 4,9 C 8,3 C 0,8 km/h
24.04.2010 08:00 9,8 C 73 % 1019,7 hPa 0,0 l/m 0,1 km/h N 5,2 C 9,8 C 2,4 km/h
24.04.2010 09:00 11,4 C 62 % 1019,9 hPa 0,0 l/m 0,3 km/h NO 4,4 C 11,4 C 2,4 km/h
24.04.2010 10:00 12,2 C 60 % 1020,3 hPa 0,0 l/m 1,0 km/h NO 4,5 C 12,2 C 5,6 km/h
24.04.2010 11:00 13,0 C 56 % 1020,7 hPa 0,0 l/m 2,5 km/h NO 4,3 C 13,0 C 6,8 km/h
24.04.2010 12:00 14,2 C 53 % 1020,6 hPa 0,0 l/m 2,5 km/h O-NO 4,8 C 14,2 C 8,0 km/h
24.04.2010 13:00 15,4 C 53 % 1020,2 hPa 0,0 l/m 2,3 km/h NO 5,9 C 15,4 C 7,6 km/h
24.04.2010 14:00 16,7 C 54 % 1020,0 hPa 0,0 l/m 3,2 km/h NO 7,2 C 16,7 C 9,7 km/h
24.04.2010 15:00 17,4 C 51 % 1019,8 hPa 0,0 l/m 2,6 km/h O-NO 7,3 C 17,4 C 7,6 km/h
24.04.2010 16:00 17,9 C 53 % 1019,7 hPa 0,0 l/m 2,6 km/h O 8,1 C 17,9 C 6,8 km/h
24.04.2010 17:00 17,9 C 54 % 1019,8 hPa 0,0 l/m 1,6 km/h O-NO 8,4 C 17,9 C 5,6 km/h
24.04.2010 18:00 17,4 C 54 % 1019,8 hPa 0,0 l/m 1,4 km/h O 7,8 C 17,4 C 4,8 km/h
24.04.2010 19:00 15,6 C 61 % 1020,2 hPa 0,0 l/m 0,2 km/h N 7,9 C 15,6 C 1,6 km/h
24.04.2010 20:00 12,5 C 72 % 1020,9 hPa 0,0 l/m 0,0 km/h N 7,7 C 12,5 C 0,4 km/h
24.04.2010 21:00 10,8 C 78 % 1021,7 hPa 0,0 l/m 0,0 km/h N 7,0 C 10,8 C 0,8 km/h
24.04.2010 22:00 10,8 C 77 % 1022,0 hPa 0,0 l/m 0,1 km/h N 6,9 C 10,8 C 2,4 km/h
24.04.2010 23:00 10,6 C 77 % 1022,1 hPa 0,0 l/m 0,3 km/h N 6,8 C 10,6 C 4,0 km/h
25.04.2010 00:00 9,0 C 81 % 1022,5 hPa 0,0 l/m 0,3 km/h N 5,9 C 9,0 C 2,4 km/h
25.04.2010 01:00 7,5 C 85 % 1022,8 hPa 0,0 l/m 0,0 km/h N 5,1 C 7,5 C 1,2 km/h
25.04.2010 02:00 7,4 C 84 % 1022,8 hPa 0,0 l/m 0,0 km/h N 4,9 C 7,4 C 2,0 km/h
25.04.2010 03:00 6,8 C 83 % 1022,9 hPa 0,0 l/m 0,0 km/h N 4,1 C 6,8 C 0,8 km/h
25.04.2010 04:00 6,2 C 84 % 1023,3 hPa 0,0 l/m 0,0 km/h N 3,7 C 6,2 C 1,6 km/h
25.04.2010 05:00 6,6 C 83 % 1023,5 hPa 0,0 l/m 0,1 km/h N 4,0 C 6,6 C 2,0 km/h
25.04.2010 06:00 6,3 C 82 % 1023,8 hPa 0,0 l/m 0,1 km/h N 3,4 C 6,3 C 2,0 km/h
25.04.2010 07:00 7,9 C 79 % 1024,3 hPa 0,0 l/m 0,0 km/h N 4,5 C 7,9 C 0,4 km/h
25.04.2010 08:00 10,9 C 68 % 1024,8 hPa 0,0 l/m 0,4 km/h NO 5,3 C 10,9 C 2,0 km/h
25.04.2010 09:00 13,2 C 55 % 1024,8 hPa 0,0 l/m 1,5 km/h NO 4,4 C 13,2 C 4,4 km/h
25.04.2010 10:00 15,2 C 54 % 1024,9 hPa 0,0 l/m 1,5 km/h O-NO 5,8 C 15,2 C 5,6 km/h
25.04.2010 11:00 16,9 C 50 % 1025,0 hPa 0,0 l/m 2,0 km/h O 6,5 C 16,9 C 6,4 km/h
25.04.2010 12:00 18,3 C 49 % 1024,7 hPa 0,0 l/m 2,4 km/h O 7,2 C 18,3 C 6,0 km/h
25.04.2010 13:00 19,7 C 51 % 1024,0 hPa 0,0 l/m 3,1 km/h O 9,2 C 19,7 C 8,9 km/h
25.04.2010 14:00 20,6 C 49 % 1023,5 hPa 0,0 l/m 3,2 km/h O 9,4 C 20,6 C 9,3 km/h
25.04.2010 15:00 21,5 C 47 % 1023,1 hPa 0,0 l/m 3,5 km/h O 9,8 C 21,5 C 10,1 km/h
25.04.2010 16:00 21,8 C 48 % 1022,7 hPa 0,0 l/m 3,9 km/h O 10,1 C 21,8 C 9,3 km/h
25.04.2010 17:00 21,7 C 44 % 1022,5 hPa 0,0 l/m 3,1 km/h O 8,8 C 21,7 C 9,6 km/h
25.04.2010 18:00 20,9 C 45 % 1022,3 hPa 0,0 l/m 3,1 km/h O-SO 8,3 C 20,9 C 7,2 km/h
25.04.2010 19:00 19,8 C 47 % 1022,2 hPa 0,0 l/m 1,3 km/h O-SO 8,2 C 19,8 C 4,4 km/h
25.04.2010 20:00 15,2 C 65 % 1022,4 hPa 0,0 l/m 0,0 km/h N 8,6 C 15,2 C 0,4 km/h
25.04.2010 21:00 13,6 C 72 % 1022,9 hPa 0,0 l/m 0,1 km/h N 8,6 C 13,6 C 1,2 km/h
25.04.2010 22:00 11,5 C 79 % 1022,9 hPa 0,0 l/m 0,0 km/h N 8,1 C 11,5 C 0,0 km/h
25.04.2010 23:00 10,4 C 83 % 1022,7 hPa 0,0 l/m 0,0 km/h N 7,7 C 10,4 C 0,0 km/h
Min-Datum _ 23.04.10 20.04.10 19.04.10 - 19.04.10 - 22.04.10 23.04.10 19.04.10
_ Min-Zeit 04:45 16:45 16:30 - 00:00 - 10:45 05:00 03:45
Minimum _ 1,3 C 31 % 1010,2 hPa - 0,0 km/h - -2,2 C 1,3 C 0,0 km/h
Max-Datum _ 25.04.10 23.04.10 25.04.10 22.04.10 21.04.10 - 25.04.10 25.04.10 21.04.10
_ Max-Zeit 16:45 07:00 11:15 10:45 13:30 - 16:00 16:45 13:30
Maximum _ 22,4 C 92 % 1025,1 hPa 0,3 l/m 17,4 km/h
W-NW
- 10,6 C 22,3 C 41,8 km/h
W-SW
Durchschnitt _ 11,7 C 63 % 1015,9 hPa #0,3 l/m 2,9 km/h O 4,2 C 11,5 C 8,9 km/h